createdAt,value
2019-03-23T00:08:07.487Z,99.90
2019-03-23T00:38:11.202Z,99.90
2019-03-23T01:08:14.939Z,99.90
2019-03-23T01:38:18.615Z,99.90
2019-03-23T02:08:22.223Z,99.90
2019-03-23T02:38:25.834Z,99.90
2019-03-23T03:08:29.449Z,99.90
2019-03-23T03:38:33.138Z,99.90
2019-03-23T04:08:36.807Z,99.90
2019-03-23T04:38:40.499Z,99.90
2019-03-23T05:08:44.155Z,99.90
2019-03-23T05:38:47.745Z,99.90
2019-03-23T06:08:55.204Z,99.90
2019-03-23T06:39:05.083Z,99.90
2019-03-23T07:09:01.822Z,99.90
2019-03-23T07:39:06.945Z,98.60
2019-03-23T08:09:20.068Z,99.90
2019-03-23T08:39:16.046Z,96.80
2019-03-23T09:09:19.613Z,94.50
2019-03-23T09:39:23.222Z,88.70
2019-03-23T10:09:26.804Z,73.70
2019-03-23T10:39:30.425Z,68.10
2019-03-23T11:09:34.075Z,61.00
2019-03-23T11:39:37.744Z,58.30
2019-03-23T12:09:41.321Z,55.60
2019-03-23T12:39:44.965Z,54.70
2019-03-23T13:09:48.564Z,49.20
2019-03-23T13:39:52.165Z,48.20
2019-03-23T14:09:55.750Z,51.60
2019-03-23T14:39:59.338Z,51.00
2019-03-23T15:10:03.097Z,54.10
2019-03-23T15:40:10.296Z,54.60
2019-03-23T16:10:15.410Z,56.40
2019-03-23T16:40:20.045Z,63.40
2019-03-23T17:10:23.606Z,74.40
2019-03-23T17:40:27.325Z,79.90
2019-03-23T18:10:31.118Z,86.80
2019-03-23T18:40:35.597Z,96.30
2019-03-23T19:10:39.285Z,96.00
2019-03-23T19:40:43.552Z,95.40
2019-03-23T20:10:47.251Z,97.80
2019-03-23T20:40:51.833Z,99.20
2019-03-23T21:10:57.382Z,99.60
2019-03-23T21:41:01.033Z,98.50
2019-03-23T22:11:04.978Z,99.90
2019-03-23T22:41:08.554Z,99.90
2019-03-23T23:11:12.145Z,99.90
2019-03-23T23:41:15.762Z,99.90
